地図

経路データ

SID SEASON NUMBER BASIN SUBBASIN NAME ISO_TIME NATURE LAT LON WMO_WIND WMO_PRES WMO_AGENCY TRACK_TYPE DIST2LAND LANDFALL IFLAG USA_AGENCY USA_ATCF_ID USA_LAT USA_LON USA_RECORD USA_STATUS USA_WIND USA_PRES USA_SSHS USA_R34_NE USA_R34_SE USA_R34_SW USA_R34_NW USA_R50_NE USA_R50_SE USA_R50_SW USA_R50_NW USA_R64_NE USA_R64_SE USA_R64_SW USA_R64_NW USA_POCI USA_ROCI USA_RMW USA_EYE TOKYO_LAT TOKYO_LON TOKYO_GRADE TOKYO_WIND TOKYO_PRES TOKYO_R50_DIR TOKYO_R50_LONG TOKYO_R50_SHORT TOKYO_R30_DIR TOKYO_R30_LONG TOKYO_R30_SHORT TOKYO_LAND CMA_LAT CMA_LON CMA_CAT CMA_WIND CMA_PRES HKO_LAT HKO_LON HKO_CAT HKO_WIND HKO_PRES NEWDELHI_LAT NEWDELHI_LON NEWDELHI_GRADE NEWDELHI_WIND NEWDELHI_PRES NEWDELHI_CI NEWDELHI_DP NEWDELHI_POCI REUNION_LAT REUNION_LON REUNION_TYPE REUNION_WIND REUNION_PRES REUNION_TNUM REUNION_CI REUNION_RMW REUNION_R34_NE REUNION_R34_SE REUNION_R34_SW REUNION_R34_NW REUNION_R50_NE REUNION_R50_SE REUNION_R50_SW REUNION_R50_NW REUNION_R64_NE REUNION_R64_SE REUNION_R64_SW REUNION_R64_NW BOM_LAT BOM_LON BOM_TYPE BOM_WIND BOM_PRES BOM_TNUM BOM_CI BOM_RMW BOM_R34_NE BOM_R34_SE BOM_R34_SW BOM_R34_NW BOM_R50_NE BOM_R50_SE BOM_R50_SW BOM_R50_NW BOM_R64_NE BOM_R64_SE BOM_R64_SW BOM_R64_NW BOM_ROCI BOM_POCI BOM_EYE BOM_POS_METHOD BOM_PRES_METHOD NADI_LAT NADI_LON NADI_CAT NADI_WIND NADI_PRES WELLINGTON_LAT WELLINGTON_LON WELLINGTON_WIND WELLINGTON_PRES DS824_LAT DS824_LON DS824_STAGE DS824_WIND DS824_PRES TD9636_LAT TD9636_LON TD9636_STAGE TD9636_WIND TD9636_PRES TD9635_LAT TD9635_LON TD9635_WIND TD9635_PRES TD9635_ROCI NEUMANN_LAT NEUMANN_LON NEUMANN_CLASS NEUMANN_WIND NEUMANN_PRES MLC_LAT MLC_LON MLC_CLASS MLC_WIND MLC_PRES USA_GUST BOM_GUST BOM_GUST_PER REUNION_GUST REUNION_GUST_PER USA_SEAHGT USA_SEARAD_NE USA_SEARAD_SE USA_SEARAD_SW USA_SEARAD_NW STORM_SPEED STORM_DIR
1923028S15168 1923 7 SP MM NOT_NAMED 1923-01-27 23:00:00 NR -15.0000 168.000 main 96 82 __________O___ -1 -15.0000 168.000 7 13 213
1923028S15168 1923 7 SP MM NOT_NAMED 1923-01-28 00:00:00 TS -15.1816 167.878 main 82 34 _________OP___ -1 -15.2000 167.900 TC 50 988 -15.1725 167.868 7 12 214
1923028S15168 1923 7 SP MM NOT_NAMED 1923-01-28 03:00:00 TS -15.6754 167.528 main 35 0 _________PP___ -1 -15.6577 167.605 TC -15.6872 167.476 7 12 214
1923028S15168 1923 7 SP MM NOT_NAMED 1923-01-28 06:00:00 TS -16.1619 167.197 main 11 11 _________PP___ -1 -16.1204 167.315 TC -16.1930 167.108 7 11 212
1923028S15168 1923 7 SP MM NOT_NAMED 1923-01-28 09:00:00 TS -16.6386 166.909 main 54 54 _________PP___ -1 -16.5933 167.035 TC -16.6840 166.783 7 11 209
1923028S15168 1923 7 SP MM NOT_NAMED 1923-01-28 11:00:00 TS -16.9585 166.729 main 93 93 _________PO___ -1 -16.9169 166.857 TC -17.0000 166.600 7 11 208
1923028S15168 1923 7 SP MM NOT_NAMED 1923-01-28 12:00:00 TS -17.1180 166.646 main 108 108 _________PP___ -1 -17.0818 166.772 TC -17.1542 166.520 7 11 204
1923028S15168 1923 7 SP MM NOT_NAMED 1923-01-28 15:00:00 TS -17.6017 166.428 main 161 161 _________PP___ -1 -17.5913 166.530 TC -17.6121 166.325 7 11 201
1923028S15168 1923 7 SP MM NOT_NAMED 1923-01-28 18:00:00 TS -18.1069 166.249 main 217 217 _________PP___ -1 -18.1271 166.317 TC -18.0867 166.180 7 11 196
1923028S15168 1923 7 SP MM NOT_NAMED 1923-01-28 21:00:00 TS -18.6522 166.103 main 245 214 _________PP___ -1 -18.6948 166.139 TC -18.6095 166.067 7 12 193
1923028S15168 1923 7 SP MM NOT_NAMED 1923-01-28 23:00:00 TS -19.0469 166.021 main 214 197 _________PO___ -1 -19.0938 166.041 TC -19.0000 166.000 7 12 191
1923028S15168 1923 7 SP MM NOT_NAMED 1923-01-29 00:00:00 TS -19.2582 165.975 main 187 124 _________OP___ -1 -19.3000 166.000 TC 60 978 -19.2165 165.950 7 14 190
1923028S15168 1923 7 SP MM NOT_NAMED 1923-01-29 03:00:00 TS -19.9338 165.857 main 124 61 _________PP___ -1 -19.9464 165.906 TC -19.9211 165.809 7 14 188
1923028S15168 1923 7 SP MM NOT_NAMED 1923-01-29 06:00:00 TS -20.6577 165.772 main 53 0 _________PP___ -1 -20.6314 165.852 TC -20.6840 165.691 7 15 185
1923028S15168 1923 7 SP MM NOT_NAMED 1923-01-29 09:00:00 TS -21.4121 165.724 main 0 0 _________PP___ -1 -21.3503 165.831 TC -21.4739 165.617 7 15 183
1923028S15168 1923 7 SP MM NOT_NAMED 1923-01-29 11:00:00 TS -21.9231 165.717 main 10 10 _________PO___ -1 -21.8462 165.833 TC -22.0000 165.600 7 15 0
1923028S15168 1923 7 SP MM NOT_NAMED 1923-01-29 12:00:00 TS -22.1713 165.727 main 35 35 _________PP___ -1 -22.0987 165.838 TC -22.2439 165.617 7 15 176
1923028S15168 1923 7 SP MM NOT_NAMED 1923-01-29 15:00:00 TS -22.9226 165.790 main 91 91 _________PP___ -1 -22.8723 165.865 TC -22.9730 165.716 7 15 175
1923028S15168 1923 7 SP MM NOT_NAMED 1923-01-29 18:00:00 TS -23.6885 165.877 main 164 164 _________PP___ -1 -23.6666 165.905 TC -23.7104 165.848 7 16 174
1923028S15168 1923 7 SP MM NOT_NAMED 1923-01-29 21:00:00 TS -24.4744 165.957 main 245 245 _________PP___ -1 -24.4772 165.953 TC -24.4716 165.962 7 16 175
1923028S15168 1923 7 SP MM NOT_NAMED 1923-01-29 23:00:00 TS -25.0123 165.992 main 299 299 _________PO___ -1 -25.0246 165.985 TC -25.0000 166.000 7 16 178
1923028S15168 1923 7 SP MM NOT_NAMED 1923-01-30 00:00:00 TS -25.2875 165.989 main 331 331 _________OP___ -1 -25.3000 166.000 TC 65 976 -25.2749 165.978 7 17 182
1923028S15168 1923 7 SP MM NOT_NAMED 1923-01-30 03:00:00 TS -26.1294 165.948 main 421 421 _________PP___ -1 -26.1313 166.041 TC -26.1274 165.855 7 17 183
1923028S15168 1923 7 SP MM NOT_NAMED 1923-01-30 06:00:00 TS -26.9894 165.885 main 520 520 _________PP___ -1 -26.9699 166.076 TC -27.0090 165.694 7 17 183
1923028S15168 1923 7 SP MM NOT_NAMED 1923-01-30 09:00:00 TS -27.8594 165.829 main 621 621 _________PP___ -1 -27.8150 166.105 TC -27.9037 165.553 7 18 183
1923028S15168 1923 7 SP MM NOT_NAMED 1923-01-30 11:00:00 TS -28.4407 165.811 main 676 676 _________PO___ -1 -28.3814 166.122 TC -28.5000 165.500 7 18 182
1923028S15168 1923 7 SP MM NOT_NAMED 1923-01-30 12:00:00 TS -28.7419 165.809 main 709 709 _________PP___ -1 -28.6655 166.130 TC -28.8183 165.488 7 18 0
1923028S15168 1923 7 SP MM NOT_NAMED 1923-01-30 15:00:00 TS -29.6526 165.825 main 820 769 _________PP___ -1 -29.5206 166.150 TC -29.7847 165.500 7 18 178
1923028S15168 1923 7 SP MM NOT_NAMED 1923-01-30 18:00:00 TS -30.5470 165.883 main 769 704 _________PP___ -1 -30.3789 166.168 TC -30.7151 165.597 7 18 176
1923028S15168 1923 7 SP MM NOT_NAMED 1923-01-30 21:00:00 TS -31.4118 165.964 main 704 669 _________PP___ -1 -31.2392 166.185 TC -31.5412 165.799 7 17 174
1923028S15168 1923 7 SP MM NOT_NAMED 1923-01-30 23:00:00 TS -31.9377 166.065 main 669 659 _________PO___ -1 -31.8131 166.195 TC -32.0000 166.000 7 16 169
1923028S15168 1923 7 SP MM NOT_NAMED 1923-01-31 00:00:00 TS -32.1715 166.129 main 654 602 _________OP___ -1 -32.1000 166.200 TC 60 980 -32.1894 166.112 7 12 151
1923028S15168 1923 7 SP MM NOT_NAMED 1923-01-31 03:00:00 NR -32.6392 166.530 main 602 546 __________P___ -1 TC -32.6392 166.530 7 11 135
1923028S15168 1923 7 SP MM NOT_NAMED 1923-01-31 06:00:00 NR -32.9509 167.056 main 534 482 __________P___ -1 TC -32.9509 167.056 7 11 119
1923028S15168 1923 7 SP MM NOT_NAMED 1923-01-31 09:00:00 NR -33.1747 167.663 main 474 435 __________P___ -1 TC -33.1747 167.663 7 11 112
1923028S15168 1923 7 SP MM NOT_NAMED 1923-01-31 11:00:00 NR -33.3000 168.100 main 435 414 __________O___ -1 TC -33.3000 168.100 7 12 109
1923028S15168 1923 7 SP MM NOT_NAMED 1923-01-31 12:00:00 NR -33.3608 168.326 main 414 349 __________P___ -1 TC -33.3608 168.326 7 12 107
1923028S15168 1923 7 SP MM NOT_NAMED 1923-01-31 15:00:00 NR -33.5409 169.025 main 349 280 __________P___ -1 TC -33.5409 169.025 7 12 107
1923028S15168 1923 7 SP MM NOT_NAMED 1923-01-31 18:00:00 NR -33.7168 169.752 main 272 204 __________P___ -1 TC -33.7168 169.752 7 13 106
1923028S15168 1923 7 SP MM NOT_NAMED 1923-01-31 21:00:00 NR -33.8883 170.498 main 204 156 __________P___ -1 TC -33.8883 170.498 7 13 105
1923028S15168 1923 7 SP MM NOT_NAMED 1923-01-31 23:00:00 NR -34.0000 171.000 main 156 __________O___ -1 TC -34.0000 171.000 7 13 105

デジタル台風データ・検索

IBTrACS Databaseについて

本データベースは、米国NOAAが公開する1842年以降の世界の熱帯低気圧のベストトラックデータアーカイブInternational Best Track Archive for Climate Stewardship (IBTrACS)を、ウェブで閲覧しやすい形式に変換したものです。

最終更新日:2021-11-26